Impacts METAR Board
IDs:

KMIA - Miami Intl, FL, US

Updated at: 0700 UTC 16 Oct 2018
Potential Impact None Slight Moderate High
Time 15/19Z 15/20Z 15/21Z 15/22Z 15/23Z 16/00Z 16/01Z 16/02Z 16/03Z 16/04Z 16/05Z 16/06Z 16/07Z
Temp86 87 84 84 83 83 83 83 82 81 82 82 81
Dewpt76 76 75 76 75 76 77 76 77 77 76 76 77
Altim30.03 30.03 30.03 30.04 30.04 30.06 30.07 30.09 30.09 30.09 30.08 30.07 30.06
VIS10 10 10 10 10 10 10 10 10 10 10 10 10
CIG27 30 -- -- -- -- -- -- -- -- -- -- --
CoverBKNBKNSCTSCTSCTSCTSCTSCTSCTFEWSCTSCTSCT
FltCatMVFRMVFRVFRVFRVFRVFRVFRVFRVFRVFRVFRVFRVFR
WX--------------------------
WDir80701009090908010090100100110100
WSpd16 9 14 14 14 10 11 13 11 10 12 9 9
WGst-- 17 -- -- -- -- -- -- -- -- -- -- --
Raw hourly METARs
KMIA 151853Z 08016KT 10SM BKN027 30/24 A3003 RMK AO2 SLP168 T03000244
KMIA 151953Z 07009G17KT 10SM BKN030 31/24 A3003 RMK AO2 SLP168 T03060244
KMIA 152053Z 10014KT 10SM SCT026 29/24 A3003 RMK AO2 SLP169 T02890239 55004
KMIA 152153Z 09014KT 10SM SCT024 29/24 A3004 RMK AO2 SLP172 T02890244
KMIA 152253Z 09014KT 10SM SCT024 SCT048 SCT250 28/24 A3004 RMK AO2 SLP172 T02830239
KMIA 152353Z 09010KT 10SM SCT026 28/24 A3006 RMK AO2 SLP177 T02830244 10311 20283 53008
KMIA 160053Z 08011KT 10SM SCT024 28/25 A3007 RMK AO2 SLP184 T02830250
KMIA 160153Z 10013KT 10SM SCT024 28/24 A3009 RMK AO2 SLP188 T02830244
KMIA 160253Z 09011KT 10SM SCT022 28/25 A3009 RMK AO2 SLP190 T02780250 51012
KMIA 160353Z 10010KT 10SM FEW023 27/25 A3009 RMK AO2 SLP189 T02720250
KMIA 160453Z 10012KT 10SM SCT026 28/24 A3008 RMK AO2 SLP186 T02780244 403170256
KMIA 160553Z 11009KT 10SM SCT024 28/24 A3007 RMK AO2 SLP182 T02780244 10289 20272 58007
KMIA 160653Z 10009KT 10SM SCT024 27/25 A3006 RMK AO2 SLP180 T02720250



Page loaded:  07:58 UTC  |   12:58 AM Pacific  |   01:58 AM Mountain  |   02:58 AM Central  |   03:58 AM Eastern

 

ADVISORIES

FORECASTS

FORECASTS

OBSERVATIONS

USER TOOLS

ABOUT US